sensor_id;sensor_type;location;lat;lon;timestamp;temperature;humidity
55560;DHT22;41414;53.250;6.514;2022-12-18T00:01:18;-3.40;99.90
55560;DHT22;41414;53.250;6.514;2022-12-18T00:03:45;-3.40;99.90
55560;DHT22;41414;53.250;6.514;2022-12-18T00:06:11;-3.40;99.90
55560;DHT22;41414;53.250;6.514;2022-12-18T00:08:39;-3.40;99.90
55560;DHT22;41414;53.250;6.514;2022-12-18T00:11:07;-3.50;99.90
55560;DHT22;41414;53.250;6.514;2022-12-18T00:13:34;-3.50;99.90
55560;DHT22;41414;53.250;6.514;2022-12-18T00:16:05;-3.50;99.90
55560;DHT22;41414;53.250;6.514;2022-12-18T00:18:31;-3.60;99.90
55560;DHT22;41414;53.250;6.514;2022-12-18T00:21:01;-3.60;99.90
55560;DHT22;41414;53.250;6.514;2022-12-18T00:23:28;-3.60;99.90
55560;DHT22;41414;53.250;6.514;2022-12-18T00:25:54;-3.60;99.90
55560;DHT22;41414;53.250;6.514;2022-12-18T00:28:20;-3.60;99.90
55560;DHT22;41414;53.250;6.514;2022-12-18T00:30:46;-3.60;99.90
55560;DHT22;41414;53.250;6.514;2022-12-18T00:33:12;-3.60;99.90
55560;DHT22;41414;53.250;6.514;2022-12-18T00:35:38;-3.50;99.90
55560;DHT22;41414;53.250;6.514;2022-12-18T00:38:04;-3.50;99.90
55560;DHT22;41414;53.250;6.514;2022-12-18T00:40:31;-3.60;99.90
55560;DHT22;41414;53.250;6.514;2022-12-18T00:42:57;-3.60;99.90
55560;DHT22;41414;53.250;6.514;2022-12-18T00:45:24;-3.60;99.90
55560;DHT22;41414;53.250;6.514;2022-12-18T00:47:51;-3.60;99.90
55560;DHT22;41414;53.250;6.514;2022-12-18T00:50:17;-3.70;99.90
55560;DHT22;41414;53.250;6.514;2022-12-18T00:52:43;-3.70;99.90
55560;DHT22;41414;53.250;6.514;2022-12-18T00:55:09;-3.70;99.90
55560;DHT22;41414;53.250;6.514;2022-12-18T00:57:35;-3.70;99.90
55560;DHT22;41414;53.250;6.514;2022-12-18T01:00:01;-3.70;99.90
55560;DHT22;41414;53.250;6.514;2022-12-18T01:02:27;-3.70;99.90
55560;DHT22;41414;53.250;6.514;2022-12-18T01:04:52;-3.70;99.90
55560;DHT22;41414;53.250;6.514;2022-12-18T01:07:18;-3.70;99.90
55560;DHT22;41414;53.250;6.514;2022-12-18T01:09:44;-3.70;99.90
55560;DHT22;41414;53.250;6.514;2022-12-18T01:12:10;-3.70;99.90
55560;DHT22;41414;53.250;6.514;2022-12-18T01:14:36;-3.70;99.90
55560;DHT22;41414;53.250;6.514;2022-12-18T01:17:03;-3.80;99.90
55560;DHT22;41414;53.250;6.514;2022-12-18T01:19:29;-3.70;99.90
55560;DHT22;41414;53.250;6.514;2022-12-18T01:21:55;-3.80;99.90
55560;DHT22;41414;53.250;6.514;2022-12-18T01:24:21;-3.80;99.90
55560;DHT22;41414;53.250;6.514;2022-12-18T01:26:47;-3.80;99.90
55560;DHT22;41414;53.250;6.514;2022-12-18T01:29:13;-3.80;99.90
55560;DHT22;41414;53.250;6.514;2022-12-18T01:31:39;-3.80;99.90
55560;DHT22;41414;53.250;6.514;2022-12-18T01:34:05;-3.80;99.90
55560;DHT22;41414;53.250;6.514;2022-12-18T01:36:33;-3.90;99.90
55560;DHT22;41414;53.250;6.514;2022-12-18T01:39:02;-3.90;99.90
55560;DHT22;41414;53.250;6.514;2022-12-18T01:41:30;-3.90;99.90
55560;DHT22;41414;53.250;6.514;2022-12-18T01:47:18;-4.00;99.90
55560;DHT22;41414;53.250;6.514;2022-12-18T01:49:45;-4.10;99.90
55560;DHT22;41414;53.250;6.514;2022-12-18T01:52:11;-4.10;99.90
55560;DHT22;41414;53.250;6.514;2022-12-18T01:54:37;-4.10;99.90
55560;DHT22;41414;53.250;6.514;2022-12-18T01:57:03;-4.20;99.90
55560;DHT22;41414;53.250;6.514;2022-12-18T01:59:31;-4.20;99.90
55560;DHT22;41414;53.250;6.514;2022-12-18T02:01:59;-4.20;99.90
55560;DHT22;41414;53.250;6.514;2022-12-18T02:04:27;-4.20;99.90
55560;DHT22;41414;53.250;6.514;2022-12-18T02:07:09;-4.30;99.90
55560;DHT22;41414;53.250;6.514;2022-12-18T02:09:46;-4.30;99.90
55560;DHT22;41414;53.250;6.514;2022-12-18T02:12:49;-4.40;99.90
55560;DHT22;41414;53.250;6.514;2022-12-18T02:15:32;-4.40;99.90
55560;DHT22;41414;53.250;6.514;2022-12-18T02:18:08;-4.40;99.90
55560;DHT22;41414;53.250;6.514;2022-12-18T02:20:46;-4.40;99.90
55560;DHT22;41414;53.250;6.514;2022-12-18T02:23:19;-4.40;99.90
55560;DHT22;41414;53.250;6.514;2022-12-18T02:26:11;-4.40;99.90
55560;DHT22;41414;53.250;6.514;2022-12-18T02:28:44;-4.50;99.90
55560;DHT22;41414;53.250;6.514;2022-12-18T02:31:18;-4.50;99.90
55560;DHT22;41414;53.250;6.514;2022-12-18T02:33:54;-4.50;99.90
55560;DHT22;41414;53.250;6.514;2022-12-18T02:36:23;-4.50;99.90
55560;DHT22;41414;53.250;6.514;2022-12-18T02:38:50;-4.60;99.90
55560;DHT22;41414;53.250;6.514;2022-12-18T02:41:18;-4.50;99.90
55560;DHT22;41414;53.250;6.514;2022-12-18T02:43:49;-4.60;99.90
55560;DHT22;41414;53.250;6.514;2022-12-18T02:48:49;-4.60;99.90
55560;DHT22;41414;53.250;6.514;2022-12-18T02:51:29;-4.60;99.90
55560;DHT22;41414;53.250;6.514;2022-12-18T02:54:03;-4.60;99.90
55560;DHT22;41414;53.250;6.514;2022-12-18T02:56:38;-4.70;99.90
55560;DHT22;41414;53.250;6.514;2022-12-18T02:59:15;-4.70;99.90
55560;DHT22;41414;53.250;6.514;2022-12-18T03:02:02;-4.70;99.90
55560;DHT22;41414;53.250;6.514;2022-12-18T03:04:34;-4.70;99.90
55560;DHT22;41414;53.250;6.514;2022-12-18T03:07:07;-4.80;99.90
55560;DHT22;41414;53.250;6.514;2022-12-18T03:09:38;-4.80;99.90
55560;DHT22;41414;53.250;6.514;2022-12-18T03:12:15;-4.80;99.90
55560;DHT22;41414;53.250;6.514;2022-12-18T03:15:10;-4.80;99.90
55560;DHT22;41414;53.250;6.514;2022-12-18T03:17:41;-4.80;99.90
55560;DHT22;41414;53.250;6.514;2022-12-18T03:20:13;-4.80;99.90
55560;DHT22;41414;53.250;6.514;2022-12-18T03:22:42;-4.80;99.90
55560;DHT22;41414;53.250;6.514;2022-12-18T03:25:11;-4.80;99.90
55560;DHT22;41414;53.250;6.514;2022-12-18T03:27:43;-4.80;99.90
55560;DHT22;41414;53.250;6.514;2022-12-18T03:30:12;-4.80;99.90
55560;DHT22;41414;53.250;6.514;2022-12-18T03:35:08;-4.90;99.90
55560;DHT22;41414;53.250;6.514;2022-12-18T03:37:35;-4.90;99.90
55560;DHT22;41414;53.250;6.514;2022-12-18T03:40:01;-4.90;99.90
55560;DHT22;41414;53.250;6.514;2022-12-18T03:42:33;-4.90;99.90
55560;DHT22;41414;53.250;6.514;2022-12-18T03:45:13;-4.90;99.90
55560;DHT22;41414;53.250;6.514;2022-12-18T03:47:46;-4.90;99.90
55560;DHT22;41414;53.250;6.514;2022-12-18T03:50:22;-4.90;99.90
55560;DHT22;41414;53.250;6.514;2022-12-18T03:52:57;-4.90;99.90
55560;DHT22;41414;53.250;6.514;2022-12-18T03:55:27;-4.90;99.90
55560;DHT22;41414;53.250;6.514;2022-12-18T03:57:55;-4.90;99.90
55560;DHT22;41414;53.250;6.514;2022-12-18T04:00:22;-4.90;99.90
55560;DHT22;41414;53.250;6.514;2022-12-18T04:02:51;-4.90;99.90
55560;DHT22;41414;53.250;6.514;2022-12-18T04:05:19;-4.90;99.90
55560;DHT22;41414;53.250;6.514;2022-12-18T04:07:48;-4.90;99.90
55560;DHT22;41414;53.250;6.514;2022-12-18T04:10:16;-4.90;99.90
55560;DHT22;41414;53.250;6.514;2022-12-18T04:12:42;-4.90;99.90
55560;DHT22;41414;53.250;6.514;2022-12-18T04:15:09;-4.80;99.90
55560;DHT22;41414;53.250;6.514;2022-12-18T04:17:36;-4.80;99.90
55560;DHT22;41414;53.250;6.514;2022-12-18T04:20:02;-4.90;99.90
55560;DHT22;41414;53.250;6.514;2022-12-18T04:22:28;-4.80;99.90
55560;DHT22;41414;53.250;6.514;2022-12-18T04:24:54;-4.90;99.90
55560;DHT22;41414;53.250;6.514;2022-12-18T04:27:20;-4.80;99.90
55560;DHT22;41414;53.250;6.514;2022-12-18T04:29:45;-4.80;99.90
55560;DHT22;41414;53.250;6.514;2022-12-18T04:32:11;-4.80;99.90
55560;DHT22;41414;53.250;6.514;2022-12-18T04:34:37;-4.90;99.90
55560;DHT22;41414;53.250;6.514;2022-12-18T04:37:03;-4.90;99.90
55560;DHT22;41414;53.250;6.514;2022-12-18T04:39:29;-4.90;99.90
55560;DHT22;41414;53.250;6.514;2022-12-18T04:41:55;-4.90;99.90
55560;DHT22;41414;53.250;6.514;2022-12-18T04:44:20;-4.90;99.90
55560;DHT22;41414;53.250;6.514;2022-12-18T04:46:46;-4.90;99.90
55560;DHT22;41414;53.250;6.514;2022-12-18T04:49:12;-4.90;99.90
55560;DHT22;41414;53.250;6.514;2022-12-18T04:51:38;-5.00;99.90
55560;DHT22;41414;53.250;6.514;2022-12-18T04:54:04;-5.00;99.90
55560;DHT22;41414;53.250;6.514;2022-12-18T04:56:31;-5.00;99.90
55560;DHT22;41414;53.250;6.514;2022-12-18T04:58:57;-5.00;99.90
55560;DHT22;41414;53.250;6.514;2022-12-18T05:01:23;-5.10;99.90
55560;DHT22;41414;53.250;6.514;2022-12-18T05:03:50;-5.10;99.90
55560;DHT22;41414;53.250;6.514;2022-12-18T05:06:16;-5.00;99.90
55560;DHT22;41414;53.250;6.514;2022-12-18T05:08:42;-5.10;99.90
55560;DHT22;41414;53.250;6.514;2022-12-18T05:11:11;-5.10;99.90
55560;DHT22;41414;53.250;6.514;2022-12-18T05:13:38;-5.10;99.90
55560;DHT22;41414;53.250;6.514;2022-12-18T05:16:05;-5.10;99.90
55560;DHT22;41414;53.250;6.514;2022-12-18T05:18:31;-5.10;99.90
55560;DHT22;41414;53.250;6.514;2022-12-18T05:20:57;-5.10;99.90
55560;DHT22;41414;53.250;6.514;2022-12-18T05:23:24;-5.10;99.90
55560;DHT22;41414;53.250;6.514;2022-12-18T05:25:57;-5.10;99.90
55560;DHT22;41414;53.250;6.514;2022-12-18T05:28:24;-5.10;99.90
55560;DHT22;41414;53.250;6.514;2022-12-18T05:30:55;-5.10;99.90
55560;DHT22;41414;53.250;6.514;2022-12-18T05:33:22;-5.10;99.90
55560;DHT22;41414;53.250;6.514;2022-12-18T05:35:53;-5.10;99.90
55560;DHT22;41414;53.250;6.514;2022-12-18T05:38:21;-5.20;99.90
55560;DHT22;41414;53.250;6.514;2022-12-18T05:40:48;-5.20;99.90
55560;DHT22;41414;53.250;6.514;2022-12-18T05:43:15;-5.20;99.90
55560;DHT22;41414;53.250;6.514;2022-12-18T05:45:42;-5.20;99.90
55560;DHT22;41414;53.250;6.514;2022-12-18T05:48:09;-5.20;99.90
55560;DHT22;41414;53.250;6.514;2022-12-18T05:50:43;-5.20;99.90
55560;DHT22;41414;53.250;6.514;2022-12-18T05:53:11;-5.20;99.90
55560;DHT22;41414;53.250;6.514;2022-12-18T05:55:39;-5.20;99.90
55560;DHT22;41414;53.250;6.514;2022-12-18T05:58:07;-5.30;99.90
55560;DHT22;41414;53.250;6.514;2022-12-18T06:00:35;-5.30;99.90
55560;DHT22;41414;53.250;6.514;2022-12-18T06:03:01;-5.30;99.90
55560;DHT22;41414;53.250;6.514;2022-12-18T06:05:27;-5.30;99.90
55560;DHT22;41414;53.250;6.514;2022-12-18T06:07:53;-5.30;99.90
55560;DHT22;41414;53.250;6.514;2022-12-18T06:10:19;-5.40;99.90
55560;DHT22;41414;53.250;6.514;2022-12-18T06:12:45;-5.40;99.90
55560;DHT22;41414;53.250;6.514;2022-12-18T06:15:11;-5.40;99.90
55560;DHT22;41414;53.250;6.514;2022-12-18T06:17:37;-5.40;99.90
55560;DHT22;41414;53.250;6.514;2022-12-18T06:20:03;-5.40;99.90
55560;DHT22;41414;53.250;6.514;2022-12-18T06:22:31;-5.40;99.90
55560;DHT22;41414;53.250;6.514;2022-12-18T06:24:57;-5.40;99.90
55560;DHT22;41414;53.250;6.514;2022-12-18T06:27:25;-5.40;99.90
55560;DHT22;41414;53.250;6.514;2022-12-18T06:29:50;-5.40;99.90
55560;DHT22;41414;53.250;6.514;2022-12-18T06:32:16;-5.40;99.90
55560;DHT22;41414;53.250;6.514;2022-12-18T06:34:42;-5.40;99.90
55560;DHT22;41414;53.250;6.514;2022-12-18T06:37:08;-5.40;99.90
55560;DHT22;41414;53.250;6.514;2022-12-18T06:39:34;-5.40;99.90
55560;DHT22;41414;53.250;6.514;2022-12-18T06:41:59;-5.40;99.90
55560;DHT22;41414;53.250;6.514;2022-12-18T06:44:25;-5.40;99.90
55560;DHT22;41414;53.250;6.514;2022-12-18T06:46:51;-5.40;99.90
55560;DHT22;41414;53.250;6.514;2022-12-18T06:49:17;-5.40;99.90
55560;DHT22;41414;53.250;6.514;2022-12-18T06:51:43;-5.40;99.90
55560;DHT22;41414;53.250;6.514;2022-12-18T06:54:08;-5.40;99.90
55560;DHT22;41414;53.250;6.514;2022-12-18T06:56:35;-5.40;99.90
55560;DHT22;41414;53.250;6.514;2022-12-18T06:59:00;-5.40;99.90
55560;DHT22;41414;53.250;6.514;2022-12-18T07:01:26;-5.40;99.90
55560;DHT22;41414;53.250;6.514;2022-12-18T07:03:54;-5.40;99.90
55560;DHT22;41414;53.250;6.514;2022-12-18T07:06:23;-5.40;99.90
55560;DHT22;41414;53.250;6.514;2022-12-18T07:08:50;-5.40;99.90
55560;DHT22;41414;53.250;6.514;2022-12-18T07:11:17;-5.40;99.90
55560;DHT22;41414;53.250;6.514;2022-12-18T07:13:43;-5.40;99.90
55560;DHT22;41414;53.250;6.514;2022-12-18T07:16:13;-5.30;99.90
55560;DHT22;41414;53.250;6.514;2022-12-18T07:18:39;-5.30;99.90
55560;DHT22;41414;53.250;6.514;2022-12-18T07:21:08;-5.30;99.90
55560;DHT22;41414;53.250;6.514;2022-12-18T07:23:35;-5.30;99.90
55560;DHT22;41414;53.250;6.514;2022-12-18T07:26:03;-5.30;99.90
55560;DHT22;41414;53.250;6.514;2022-12-18T07:28:30;-5.20;99.90
55560;DHT22;41414;53.250;6.514;2022-12-18T07:30:56;-5.20;99.90
55560;DHT22;41414;53.250;6.514;2022-12-18T07:33:22;-5.10;99.90
55560;DHT22;41414;53.250;6.514;2022-12-18T07:35:48;-5.10;99.90
55560;DHT22;41414;53.250;6.514;2022-12-18T07:38:13;-5.00;99.90
55560;DHT22;41414;53.250;6.514;2022-12-18T07:40:39;-5.00;99.90
55560;DHT22;41414;53.250;6.514;2022-12-18T07:43:05;-5.00;99.90
55560;DHT22;41414;53.250;6.514;2022-12-18T07:45:31;-5.00;99.90
55560;DHT22;41414;53.250;6.514;2022-12-18T07:47:57;-4.90;99.90
55560;DHT22;41414;53.250;6.514;2022-12-18T07:50:22;-4.90;99.90
55560;DHT22;41414;53.250;6.514;2022-12-18T07:52:50;-3.30;99.90
55560;DHT22;41414;53.250;6.514;2022-12-18T07:55:16;-4.90;99.90
55560;DHT22;41414;53.250;6.514;2022-12-18T07:57:42;-4.90;99.90
55560;DHT22;41414;53.250;6.514;2022-12-18T08:00:08;-4.90;99.90
55560;DHT22;41414;53.250;6.514;2022-12-18T08:02:34;-4.90;99.90
55560;DHT22;41414;53.250;6.514;2022-12-18T08:05:00;-4.90;99.90
55560;DHT22;41414;53.250;6.514;2022-12-18T08:07:26;-4.80;99.90
55560;DHT22;41414;53.250;6.514;2022-12-18T08:09:51;-4.80;99.90
55560;DHT22;41414;53.250;6.514;2022-12-18T08:12:17;-4.70;99.90
55560;DHT22;41414;53.250;6.514;2022-12-18T08:14:43;-4.60;99.90
55560;DHT22;41414;53.250;6.514;2022-12-18T08:17:09;-4.60;99.90
55560;DHT22;41414;53.250;6.514;2022-12-18T08:19:35;-4.50;99.90
55560;DHT22;41414;53.250;6.514;2022-12-18T08:22:01;-4.40;99.90
55560;DHT22;41414;53.250;6.514;2022-12-18T08:24:26;-4.40;99.90
55560;DHT22;41414;53.250;6.514;2022-12-18T08:26:52;-4.40;99.90
55560;DHT22;41414;53.250;6.514;2022-12-18T08:29:18;-4.40;99.90
55560;DHT22;41414;53.250;6.514;2022-12-18T08:31:44;-4.40;99.90
55560;DHT22;41414;53.250;6.514;2022-12-18T08:34:10;-4.40;99.90
55560;DHT22;41414;53.250;6.514;2022-12-18T08:36:36;-4.30;99.90
55560;DHT22;41414;53.250;6.514;2022-12-18T08:39:02;-4.30;99.90
55560;DHT22;41414;53.250;6.514;2022-12-18T08:41:27;-4.30;99.90
55560;DHT22;41414;53.250;6.514;2022-12-18T08:43:53;-4.20;99.90
55560;DHT22;41414;53.250;6.514;2022-12-18T08:46:39;-4.10;99.90
55560;DHT22;41414;53.250;6.514;2022-12-18T08:49:06;-4.10;99.90
55560;DHT22;41414;53.250;6.514;2022-12-18T08:51:33;-4.00;99.90
55560;DHT22;41414;53.250;6.514;2022-12-18T08:54:00;-4.00;99.90
55560;DHT22;41414;53.250;6.514;2022-12-18T08:56:26;-3.90;99.90
55560;DHT22;41414;53.250;6.514;2022-12-18T08:58:53;-3.90;99.90
55560;DHT22;41414;53.250;6.514;2022-12-18T09:01:20;-3.80;99.90
55560;DHT22;41414;53.250;6.514;2022-12-18T09:03:47;-3.80;99.90
55560;DHT22;41414;53.250;6.514;2022-12-18T09:06:15;-3.70;99.90
55560;DHT22;41414;53.250;6.514;2022-12-18T09:08:42;-3.60;99.90
55560;DHT22;41414;53.250;6.514;2022-12-18T09:11:20;-3.60;99.90
55560;DHT22;41414;53.250;6.514;2022-12-18T09:13:46;-3.50;99.90
55560;DHT22;41414;53.250;6.514;2022-12-18T09:16:12;-3.40;99.90
55560;DHT22;41414;53.250;6.514;2022-12-18T09:18:38;-3.30;99.90
55560;DHT22;41414;53.250;6.514;2022-12-18T09:21:09;-3.20;99.90
55560;DHT22;41414;53.250;6.514;2022-12-18T09:23:35;-3.10;99.90
55560;DHT22;41414;53.250;6.514;2022-12-18T09:26:00;-3.00;99.90
55560;DHT22;41414;53.250;6.514;2022-12-18T09:28:26;-3.00;99.90
55560;DHT22;41414;53.250;6.514;2022-12-18T09:30:52;-2.90;99.90
55560;DHT22;41414;53.250;6.514;2022-12-18T09:33:18;-2.80;99.90
55560;DHT22;41414;53.250;6.514;2022-12-18T09:35:45;-2.70;99.90
55560;DHT22;41414;53.250;6.514;2022-12-18T09:38:15;-2.50;99.90
55560;DHT22;41414;53.250;6.514;2022-12-18T09:40:44;-2.40;99.90
55560;DHT22;41414;53.250;6.514;2022-12-18T09:43:26;-2.20;99.90
55560;DHT22;41414;53.250;6.514;2022-12-18T09:45:58;-2.10;99.90
55560;DHT22;41414;53.250;6.514;2022-12-18T09:48:31;-2.00;99.90
55560;DHT22;41414;53.250;6.514;2022-12-18T09:51:04;-1.90;99.90
55560;DHT22;41414;53.250;6.514;2022-12-18T09:53:34;-2.00;99.90
55560;DHT22;41414;53.250;6.514;2022-12-18T09:56:02;-2.10;99.90
55560;DHT22;41414;53.250;6.514;2022-12-18T09:58:31;-2.10;99.90
55560;DHT22;41414;53.250;6.514;2022-12-18T10:00:58;-2.20;99.90
55560;DHT22;41414;53.250;6.514;2022-12-18T10:03:25;-2.30;99.90
55560;DHT22;41414;53.250;6.514;2022-12-18T10:06:05;-2.40;99.90
55560;DHT22;41414;53.250;6.514;2022-12-18T10:14:10;-2.20;99.90
55560;DHT22;41414;53.250;6.514;2022-12-18T10:16:52;-2.00;99.90
55560;DHT22;41414;53.250;6.514;2022-12-18T10:19:40;-1.60;99.90
55560;DHT22;41414;53.250;6.514;2022-12-18T10:24:59;-0.70;99.90
55560;DHT22;41414;53.250;6.514;2022-12-18T10:27:28;-0.30;99.90
55560;DHT22;41414;53.250;6.514;2022-12-18T10:29:54;0.00;99.90
55560;DHT22;41414;53.250;6.514;2022-12-18T10:32:24;0.30;99.90
55560;DHT22;41414;53.250;6.514;2022-12-18T10:34:52;0.50;99.90
55560;DHT22;41414;53.250;6.514;2022-12-18T10:37:21;0.50;99.90
55560;DHT22;41414;53.250;6.514;2022-12-18T10:42:32;0.30;99.90
55560;DHT22;41414;53.250;6.514;2022-12-18T10:45:06;0.10;99.90
55560;DHT22;41414;53.250;6.514;2022-12-18T10:47:34;0.00;99.90
55560;DHT22;41414;53.250;6.514;2022-12-18T10:50:00;-0.20;99.90
55560;DHT22;41414;53.250;6.514;2022-12-18T10:52:27;-0.40;99.90
55560;DHT22;41414;53.250;6.514;2022-12-18T10:54:57;-0.50;99.90
55560;DHT22;41414;53.250;6.514;2022-12-18T10:57:42;-0.70;99.90
55560;DHT22;41414;53.250;6.514;2022-12-18T11:00:24;-0.90;99.90
55560;DHT22;41414;53.250;6.514;2022-12-18T11:02:50;-1.00;99.90
55560;DHT22;41414;53.250;6.514;2022-12-18T11:05:31;-1.20;99.90
55560;DHT22;41414;53.250;6.514;2022-12-18T11:07:59;-1.30;99.90
55560;DHT22;41414;53.250;6.514;2022-12-18T11:10:31;-1.30;99.90
55560;DHT22;41414;53.250;6.514;2022-12-18T11:13:17;-1.50;99.90
55560;DHT22;41414;53.250;6.514;2022-12-18T11:15:43;-1.50;99.90
55560;DHT22;41414;53.250;6.514;2022-12-18T11:18:19;-1.60;99.90
55560;DHT22;41414;53.250;6.514;2022-12-18T11:20:52;-1.70;99.90
55560;DHT22;41414;53.250;6.514;2022-12-18T11:23:20;-1.70;99.90
55560;DHT22;41414;53.250;6.514;2022-12-18T11:25:56;-1.70;99.90
55560;DHT22;41414;53.250;6.514;2022-12-18T11:28:38;-1.70;99.90
55560;DHT22;41414;53.250;6.514;2022-12-18T11:31:25;-1.80;99.90
55560;DHT22;41414;53.250;6.514;2022-12-18T11:36:36;-1.80;99.90
55560;DHT22;41414;53.250;6.514;2022-12-18T11:39:16;-1.80;99.90
55560;DHT22;41414;53.250;6.514;2022-12-18T11:41:50;-1.80;99.90
55560;DHT22;41414;53.250;6.514;2022-12-18T11:44:45;-1.80;99.90
55560;DHT22;41414;53.250;6.514;2022-12-18T11:47:37;-1.70;99.90
55560;DHT22;41414;53.250;6.514;2022-12-18T11:50:14;-1.70;99.90
55560;DHT22;41414;53.250;6.514;2022-12-18T11:52:42;-1.70;99.90
55560;DHT22;41414;53.250;6.514;2022-12-18T11:55:12;-1.70;99.90
55560;DHT22;41414;53.250;6.514;2022-12-18T12:00:23;-1.70;99.90
55560;DHT22;41414;53.250;6.514;2022-12-18T12:06:15;-1.60;99.90
55560;DHT22;41414;53.250;6.514;2022-12-18T12:08:54;-1.60;99.90
55560;DHT22;41414;53.250;6.514;2022-12-18T12:16:45;-1.60;99.90
55560;DHT22;41414;53.250;6.514;2022-12-18T12:19:27;-1.60;99.90
55560;DHT22;41414;53.250;6.514;2022-12-18T12:22:10;-1.60;99.90
55560;DHT22;41414;53.250;6.514;2022-12-18T12:24:46;-1.50;99.90
55560;DHT22;41414;53.250;6.514;2022-12-18T12:27:17;-1.50;99.90
55560;DHT22;41414;53.250;6.514;2022-12-18T12:30:06;-1.50;99.90
55560;DHT22;41414;53.250;6.514;2022-12-18T12:32:59;-1.50;99.90
55560;DHT22;41414;53.250;6.514;2022-12-18T12:35:51;-1.50;99.90
55560;DHT22;41414;53.250;6.514;2022-12-18T12:38:26;-1.40;99.90
55560;DHT22;41414;53.250;6.514;2022-12-18T12:41:03;-1.40;99.90
55560;DHT22;41414;53.250;6.514;2022-12-18T12:43:34;-1.40;99.90
55560;DHT22;41414;53.250;6.514;2022-12-18T12:46:06;-1.40;99.90
55560;DHT22;41414;53.250;6.514;2022-12-18T12:48:38;-1.30;99.90
55560;DHT22;41414;53.250;6.514;2022-12-18T12:51:13;-1.30;99.90
55560;DHT22;41414;53.250;6.514;2022-12-18T12:53:40;-1.30;99.90
55560;DHT22;41414;53.250;6.514;2022-12-18T12:56:09;-1.30;99.90
55560;DHT22;41414;53.250;6.514;2022-12-18T12:58:43;-1.20;99.90
55560;DHT22;41414;53.250;6.514;2022-12-18T13:06:37;-1.10;99.90
55560;DHT22;41414;53.250;6.514;2022-12-18T13:09:06;-1.00;99.90
55560;DHT22;41414;53.250;6.514;2022-12-18T13:11:46;-1.00;99.90
55560;DHT22;41414;53.250;6.514;2022-12-18T13:14:31;-0.90;99.90
55560;DHT22;41414;53.250;6.514;2022-12-18T13:17:27;-0.90;99.90
55560;DHT22;41414;53.250;6.514;2022-12-18T13:20:10;-0.80;99.90
55560;DHT22;41414;53.250;6.514;2022-12-18T13:22:39;-0.80;99.90
55560;DHT22;41414;53.250;6.514;2022-12-18T13:25:32;-0.80;99.90
55560;DHT22;41414;53.250;6.514;2022-12-18T13:28:01;-0.80;99.90
55560;DHT22;41414;53.250;6.514;2022-12-18T13:35:41;-0.80;99.90
55560;DHT22;41414;53.250;6.514;2022-12-18T13:38:34;-0.80;99.90
55560;DHT22;41414;53.250;6.514;2022-12-18T13:46:17;-0.90;99.90
55560;DHT22;41414;53.250;6.514;2022-12-18T13:51:17;-0.90;99.90
55560;DHT22;41414;53.250;6.514;2022-12-18T13:54:00;-0.90;99.90
55560;DHT22;41414;53.250;6.514;2022-12-18T13:56:29;-0.90;99.90
55560;DHT22;41414;53.250;6.514;2022-12-18T14:01:31;-1.00;99.90
55560;DHT22;41414;53.250;6.514;2022-12-18T14:04:25;-1.00;99.90
55560;DHT22;41414;53.250;6.514;2022-12-18T14:06:56;-1.00;99.90
55560;DHT22;41414;53.250;6.514;2022-12-18T14:09:27;-1.00;99.90
55560;DHT22;41414;53.250;6.514;2022-12-18T14:11:53;-1.00;99.90
55560;DHT22;41414;53.250;6.514;2022-12-18T14:14:44;-1.00;99.90
55560;DHT22;41414;53.250;6.514;2022-12-18T14:17:11;-1.10;99.90
55560;DHT22;41414;53.250;6.514;2022-12-18T14:19:42;-1.10;99.90
55560;DHT22;41414;53.250;6.514;2022-12-18T14:22:15;-1.10;99.90
55560;DHT22;41414;53.250;6.514;2022-12-18T14:24:41;-1.10;99.90
55560;DHT22;41414;53.250;6.514;2022-12-18T14:27:24;-1.10;99.90
55560;DHT22;41414;53.250;6.514;2022-12-18T14:29:50;-1.10;99.90
55560;DHT22;41414;53.250;6.514;2022-12-18T14:32:18;-1.20;99.90
55560;DHT22;41414;53.250;6.514;2022-12-18T14:34:48;-1.20;99.90
55560;DHT22;41414;53.250;6.514;2022-12-18T14:37:17;-1.20;99.90
55560;DHT22;41414;53.250;6.514;2022-12-18T14:39:55;-1.20;99.90
55560;DHT22;41414;53.250;6.514;2022-12-18T14:42:22;-1.20;99.90
55560;DHT22;41414;53.250;6.514;2022-12-18T14:44:48;-1.30;99.90
55560;DHT22;41414;53.250;6.514;2022-12-18T14:47:15;-1.30;99.90
55560;DHT22;41414;53.250;6.514;2022-12-18T14:49:42;-1.30;99.90
55560;DHT22;41414;53.250;6.514;2022-12-18T14:52:26;-1.30;99.90
55560;DHT22;41414;53.250;6.514;2022-12-18T14:54:53;-1.30;99.90
55560;DHT22;41414;53.250;6.514;2022-12-18T14:57:25;-1.30;99.90
55560;DHT22;41414;53.250;6.514;2022-12-18T14:59:52;-1.30;99.90
55560;DHT22;41414;53.250;6.514;2022-12-18T15:02:19;-1.30;99.90
55560;DHT22;41414;53.250;6.514;2022-12-18T15:04:45;-1.30;99.90
55560;DHT22;41414;53.250;6.514;2022-12-18T15:07:16;-1.30;99.90
55560;DHT22;41414;53.250;6.514;2022-12-18T15:10:09;-1.30;99.90
55560;DHT22;41414;53.250;6.514;2022-12-18T15:12:41;-1.30;99.90
55560;DHT22;41414;53.250;6.514;2022-12-18T15:18:00;-1.40;99.90
55560;DHT22;41414;53.250;6.514;2022-12-18T15:20:27;-1.40;99.90
55560;DHT22;41414;53.250;6.514;2022-12-18T15:22:56;-1.40;99.90
55560;DHT22;41414;53.250;6.514;2022-12-18T15:25:35;-1.40;99.90
55560;DHT22;41414;53.250;6.514;2022-12-18T15:28:03;-1.40;99.90
55560;DHT22;41414;53.250;6.514;2022-12-18T15:30:29;-1.40;99.90
55560;DHT22;41414;53.250;6.514;2022-12-18T15:33:23;-1.50;99.90
55560;DHT22;41414;53.250;6.514;2022-12-18T15:35:58;-1.50;99.90
55560;DHT22;41414;53.250;6.514;2022-12-18T15:38:24;-1.50;99.90
55560;DHT22;41414;53.250;6.514;2022-12-18T15:40:50;-1.50;99.90
55560;DHT22;41414;53.250;6.514;2022-12-18T15:43:22;-1.50;99.90
55560;DHT22;41414;53.250;6.514;2022-12-18T15:46:01;-1.60;99.90
55560;DHT22;41414;53.250;6.514;2022-12-18T15:48:28;-1.60;99.90
55560;DHT22;41414;53.250;6.514;2022-12-18T15:50:55;-1.60;99.90
55560;DHT22;41414;53.250;6.514;2022-12-18T15:53:24;-1.60;99.90
55560;DHT22;41414;53.250;6.514;2022-12-18T15:55:50;-1.60;99.90
55560;DHT22;41414;53.250;6.514;2022-12-18T15:58:35;-1.60;99.90
55560;DHT22;41414;53.250;6.514;2022-12-18T16:01:01;-1.60;99.90
55560;DHT22;41414;53.250;6.514;2022-12-18T16:03:28;-1.60;99.90
55560;DHT22;41414;53.250;6.514;2022-12-18T16:05:53;-1.60;99.90
55560;DHT22;41414;53.250;6.514;2022-12-18T16:08:19;-1.60;99.90
55560;DHT22;41414;53.250;6.514;2022-12-18T16:10:45;-1.60;99.90
55560;DHT22;41414;53.250;6.514;2022-12-18T16:13:15;-1.70;99.90
55560;DHT22;41414;53.250;6.514;2022-12-18T16:15:44;-1.60;99.90
55560;DHT22;41414;53.250;6.514;2022-12-18T16:18:10;-1.70;99.90
55560;DHT22;41414;53.250;6.514;2022-12-18T16:20:36;-1.70;99.90
55560;DHT22;41414;53.250;6.514;2022-12-18T16:23:03;-1.70;99.90
55560;DHT22;41414;53.250;6.514;2022-12-18T16:25:30;-1.70;99.90
55560;DHT22;41414;53.250;6.514;2022-12-18T16:27:56;-1.60;99.90
55560;DHT22;41414;53.250;6.514;2022-12-18T16:30:25;-1.70;99.90
55560;DHT22;41414;53.250;6.514;2022-12-18T16:32:53;-1.70;99.90
55560;DHT22;41414;53.250;6.514;2022-12-18T16:35:22;-1.70;99.90
55560;DHT22;41414;53.250;6.514;2022-12-18T16:37:48;-1.70;99.90
55560;DHT22;41414;53.250;6.514;2022-12-18T16:40:15;-1.70;99.90
55560;DHT22;41414;53.250;6.514;2022-12-18T16:42:43;-1.70;99.90
55560;DHT22;41414;53.250;6.514;2022-12-18T16:45:12;-1.70;99.90